createdAt,value
2018-01-15T00:01:48.814Z,101026.39
2018-01-15T00:04:16.258Z,101018.08
2018-01-15T00:06:43.718Z,101017.54
2018-01-15T00:09:11.189Z,101020.91
2018-01-15T00:11:38.657Z,101009.95
2018-01-15T00:14:06.136Z,101005.56
2018-01-15T00:16:33.588Z,100999.03
2018-01-15T00:19:01.052Z,100999.55
2018-01-15T00:21:28.495Z,101002.62
2018-01-15T00:23:56.017Z,100995.99
2018-01-15T00:26:23.484Z,100987.67
2018-01-15T00:28:50.959Z,100987.86
2018-01-15T00:31:18.418Z,100992.45
2018-01-15T00:33:45.987Z,100995.90
2018-01-15T00:36:13.451Z,100987.86
2018-01-15T00:38:40.925Z,101000.35
2018-01-15T00:41:08.384Z,100990.89
2018-01-15T00:43:35.926Z,100989.17
2018-01-15T00:46:03.404Z,100986.95
2018-01-15T00:48:30.910Z,100986.43
2018-01-15T00:50:58.392Z,100982.27
2018-01-15T00:53:25.869Z,101003.11
2018-01-15T00:55:53.429Z,100978.38
2018-01-15T00:58:20.896Z,100974.34
2018-01-15T01:00:48.366Z,100978.70
2018-01-15T01:03:15.941Z,100976.95
2018-01-15T01:05:43.395Z,100967.60
2018-01-15T01:08:10.854Z,100975.64
2018-01-15T01:10:38.325Z,100970.95
2018-01-15T01:13:05.795Z,100968.43
2018-01-15T01:15:33.284Z,100970.56
2018-01-15T01:18:00.748Z,100978.38
2018-01-15T01:20:28.204Z,100972.70
2018-01-15T01:22:55.682Z,100975.44
2018-01-15T01:25:23.133Z,100977.57
2018-01-15T01:27:50.636Z,100979.22
2018-01-15T01:30:18.101Z,100975.13
2018-01-15T01:32:45.574Z,100970.45
2018-01-15T01:35:13.011Z,100976.15
2018-01-15T01:37:40.477Z,100967.00
2018-01-15T01:40:07.978Z,100958.87
2018-01-15T01:42:35.449Z,100952.89
2018-01-15T01:45:02.942Z,100946.45
2018-01-15T01:47:30.416Z,100951.96
2018-01-15T01:49:57.886Z,100944.84
2018-01-15T01:52:25.361Z,100940.75
2018-01-15T01:54:52.831Z,100941.87
2018-01-15T01:57:20.282Z,100936.83
2018-01-15T01:59:47.837Z,100941.48
2018-01-15T02:02:16.751Z,100948.06
2018-01-15T02:04:44.318Z,100929.88
2018-01-15T02:07:11.808Z,100942.19
2018-01-15T02:09:39.270Z,100935.47
2018-01-15T02:12:06.721Z,100940.33
2018-01-15T02:14:34.197Z,100943.27
2018-01-15T02:17:01.656Z,100932.20
2018-01-15T02:19:29.140Z,100925.20
2018-01-15T02:21:56.609Z,100922.88
2018-01-15T02:24:24.080Z,100913.30
2018-01-15T02:26:51.545Z,100915.33
2018-01-15T02:29:19.997Z,100915.45
2018-01-15T02:31:47.458Z,100913.52
2018-01-15T02:34:14.927Z,100914.34
2018-01-15T02:36:42.387Z,100917.08
2018-01-15T02:39:09.920Z,100908.02
2018-01-15T02:41:37.386Z,100909.05
2018-01-15T02:44:04.842Z,100906.99
2018-01-15T02:46:32.383Z,100902.22
2018-01-15T02:48:59.905Z,100900.91
2018-01-15T02:51:27.370Z,100902.33
2018-01-15T02:53:54.854Z,100897.64
2018-01-15T02:56:22.308Z,100897.46
2018-01-15T02:58:49.781Z,100896.00
2018-01-15T03:01:17.362Z,100885.65
2018-01-15T03:03:44.829Z,100882.01
2018-01-15T03:06:12.394Z,100884.83
2018-01-15T03:08:39.874Z,100876.32
2018-01-15T03:11:07.333Z,100873.76
2018-01-15T03:13:34.898Z,100862.97
2018-01-15T03:16:02.360Z,100870.19
2018-01-15T03:18:29.836Z,100857.69
2018-01-15T03:20:57.288Z,100859.53
2018-01-15T03:23:24.777Z,100849.05
2018-01-15T03:25:52.238Z,100853.14
2018-01-15T03:28:19.724Z,100847.95
2018-01-15T03:30:47.182Z,100844.60
2018-01-15T03:33:14.634Z,100840.42
2018-01-15T03:35:42.129Z,100835.13
2018-01-15T03:38:09.570Z,100834.34
2018-01-15T03:40:37.108Z,100833.20
2018-01-15T03:43:04.565Z,100830.97
2018-01-15T03:45:32.104Z,100831.09
2018-01-15T03:47:59.547Z,100827.73
2018-01-15T03:50:27.024Z,100823.34
2018-01-15T03:52:54.520Z,100829.24
2018-01-15T03:55:21.982Z,100817.55
2018-01-15T03:57:49.466Z,100804.45
2018-01-15T04:00:16.957Z,100796.42
2018-01-15T04:02:44.502Z,100809.13
2018-01-15T04:05:11.958Z,100812.58
2018-01-15T04:07:39.426Z,100805.97
2018-01-15T04:10:06.914Z,100805.56
2018-01-15T04:12:34.391Z,100798.15
2018-01-15T04:15:01.845Z,100796.30
2018-01-15T04:17:29.328Z,100792.45
2018-01-15T04:19:56.799Z,100792.86
2018-01-15T04:22:24.370Z,100791.54
2018-01-15T04:24:51.929Z,100785.54
2018-01-15T04:27:19.496Z,100773.66
2018-01-15T04:29:46.956Z,100774.45
2018-01-15T04:32:14.405Z,100767.02
2018-01-15T04:34:41.873Z,100768.14
2018-01-15T04:37:09.353Z,100768.65
2018-01-15T04:39:36.855Z,100762.67
2018-01-15T04:42:04.342Z,100753.73
2018-01-15T04:44:31.915Z,100760.20
2018-01-15T04:46:59.476Z,100755.44
2018-01-15T04:49:26.956Z,100762.53
2018-01-15T04:51:54.415Z,100760.91
2018-01-15T04:54:21.903Z,100755.84
2018-01-15T04:56:49.351Z,100749.95
2018-01-15T04:59:16.825Z,100745.08
2018-01-15T05:01:44.283Z,100733.80
2018-01-15T05:04:11.751Z,100740.99
2018-01-15T05:06:39.223Z,100747.10
2018-01-15T05:09:06.689Z,100741.81
2018-01-15T05:11:34.147Z,100727.92
2018-01-15T05:14:02.456Z,100730.06
2018-01-15T05:16:30.031Z,100731.28
2018-01-15T05:18:57.500Z,100737.08
2018-01-15T05:21:24.961Z,100725.91
2018-01-15T05:23:52.438Z,100728.53
2018-01-15T05:26:19.917Z,100718.98
2018-01-15T05:28:47.390Z,100712.08
2018-01-15T05:31:14.905Z,100714.83
2018-01-15T05:33:42.413Z,100719.59
2018-01-15T05:36:09.998Z,100708.01
2018-01-15T05:38:37.468Z,100694.33
2018-01-15T05:41:04.925Z,100706.48
2018-01-15T05:43:32.415Z,100708.55
2018-01-15T05:45:59.873Z,100700.30
2018-01-15T05:48:27.869Z,100694.11
2018-01-15T05:50:55.329Z,100697.45
2018-01-15T05:53:22.883Z,100683.05
2018-01-15T05:55:50.327Z,100682.13
2018-01-15T05:58:17.791Z,100685.17
2018-01-15T06:00:45.248Z,100679.89
2018-01-15T06:03:13.426Z,100678.16
2018-01-15T06:05:40.961Z,100683.36
2018-01-15T06:08:08.440Z,100677.86
2018-01-15T06:10:35.905Z,100678.25
2018-01-15T06:13:03.465Z,100684.84
2018-01-15T06:15:30.937Z,100677.45
2018-01-15T06:17:58.400Z,100668.33
2018-01-15T06:20:25.868Z,100673.09
2018-01-15T06:22:53.341Z,100676.13
2018-01-15T06:25:20.824Z,100670.95
2018-01-15T06:27:48.283Z,100670.44
2018-01-15T06:30:16.960Z,100685.86
2018-01-15T06:32:44.426Z,100680.90
2018-01-15T06:35:11.892Z,100672.28
2018-01-15T06:37:39.407Z,100678.05
2018-01-15T06:40:06.865Z,100673.90
2018-01-15T06:42:34.331Z,100677.24
2018-01-15T06:45:01.786Z,100667.39
2018-01-15T06:47:29.376Z,100671.94
2018-01-15T06:49:56.841Z,100666.88
2018-01-15T06:52:24.323Z,100671.34
2018-01-15T06:54:51.779Z,100668.00
2018-01-15T06:57:19.248Z,100670.03
2018-01-15T06:59:46.716Z,100671.13
2018-01-15T07:02:14.204Z,100672.46
2018-01-15T07:04:41.662Z,100671.84
2018-01-15T07:07:09.114Z,100675.59
2018-01-15T07:09:36.584Z,100680.06
2018-01-15T07:12:04.118Z,100680.17
2018-01-15T07:14:31.591Z,100675.39
2018-01-15T07:16:59.117Z,100669.31
2018-01-15T07:19:26.568Z,100664.33
2018-01-15T07:21:54.061Z,100655.10
2018-01-15T07:24:21.531Z,100670.63
2018-01-15T07:26:48.990Z,100665.75
2018-01-15T07:29:16.469Z,100668.82
2018-01-15T07:31:43.999Z,100667.69
2018-01-15T07:34:11.513Z,100665.28
2018-01-15T07:36:38.982Z,100663.83
2018-01-15T07:39:06.456Z,100667.08
2018-01-15T07:41:33.919Z,100659.49
2018-01-15T07:44:01.376Z,100651.05
2018-01-15T07:46:28.836Z,100658.77
2018-01-15T07:48:56.329Z,100653.01
2018-01-15T07:51:23.787Z,100650.87
2018-01-15T07:53:51.249Z,100661.82
2018-01-15T07:56:18.721Z,100652.30
2018-01-15T07:58:46.199Z,100649.34
2018-01-15T08:01:13.657Z,100650.36
2018-01-15T08:03:41.109Z,100654.12
2018-01-15T08:06:08.572Z,100658.69
2018-01-15T08:08:36.023Z,100646.51
2018-01-15T08:11:03.567Z,100646.91
2018-01-15T08:13:31.127Z,100644.54
2018-01-15T08:15:58.652Z,100631.34
2018-01-15T08:18:26.124Z,100627.31
2018-01-15T08:20:53.609Z,100620.69
2018-01-15T08:23:21.070Z,100621.77
2018-01-15T08:25:48.543Z,100617.48
2018-01-15T08:28:16.000Z,100617.10
2018-01-15T08:30:43.512Z,100606.93
2018-01-15T08:33:10.996Z,100608.62
2018-01-15T08:35:38.452Z,100608.07
2018-01-15T08:38:05.913Z,100613.48
2018-01-15T08:40:33.395Z,100608.03
2018-01-15T08:43:00.943Z,100609.44
2018-01-15T08:45:28.425Z,100596.96
2018-01-15T08:47:55.913Z,100597.61
2018-01-15T08:50:23.391Z,100589.78
2018-01-15T08:52:50.856Z,100591.01
2018-01-15T08:55:18.428Z,100578.03
2018-01-15T08:57:45.894Z,100579.32
2018-01-15T09:00:13.363Z,100572.55
2018-01-15T09:02:40.833Z,100578.17
2018-01-15T09:05:08.299Z,100583.30
2018-01-15T09:07:35.756Z,100578.48
2018-01-15T09:10:03.228Z,100572.39
2018-01-15T09:12:30.715Z,100566.86
2018-01-15T09:14:58.188Z,100557.04
2018-01-15T09:17:25.761Z,100539.20
2018-01-15T09:19:53.277Z,100547.30
2018-01-15T09:22:20.787Z,100549.92
2018-01-15T09:24:48.442Z,100541.23
2018-01-15T09:27:15.899Z,100535.56
2018-01-15T09:29:43.407Z,100545.92
2018-01-15T09:32:10.886Z,100534.91
2018-01-15T09:34:38.339Z,100541.91
2018-01-15T09:37:05.803Z,100531.95
2018-01-15T09:39:33.291Z,100527.45
2018-01-15T09:42:00.872Z,100534.95
2018-01-15T09:44:28.331Z,100523.94
2018-01-15T09:46:55.785Z,100521.09
2018-01-15T09:49:23.281Z,100532.83
2018-01-15T09:51:50.759Z,100519.81
2018-01-15T09:54:18.218Z,100521.09
2018-01-15T09:56:45.669Z,100513.19
2018-01-15T09:59:13.248Z,100513.70
2018-01-15T10:01:40.740Z,100510.23
2018-01-15T10:04:08.306Z,100508.95
2018-01-15T10:06:35.765Z,100511.20
2018-01-15T10:09:03.253Z,100511.08
2018-01-15T10:11:30.713Z,100503.98
2018-01-15T10:13:58.176Z,100496.72
2018-01-15T10:16:25.637Z,100488.70
2018-01-15T10:18:53.145Z,100481.48
2018-01-15T10:21:20.676Z,100495.98
2018-01-15T10:23:48.159Z,100487.72
2018-01-15T10:26:15.647Z,100477.78
2018-01-15T10:28:43.204Z,100477.41
2018-01-15T10:31:10.675Z,100460.97
2018-01-15T10:33:38.127Z,100458.64
2018-01-15T10:36:05.744Z,100445.39
2018-01-15T10:38:33.211Z,100448.25
2018-01-15T10:41:00.747Z,100453.73
2018-01-15T10:43:28.216Z,100439.81
2018-01-15T10:45:55.686Z,100433.80
2018-01-15T10:48:23.146Z,100429.55
2018-01-15T10:50:50.672Z,100424.55
2018-01-15T10:53:18.209Z,100418.05
2018-01-15T10:55:45.761Z,100411.64
2018-01-15T10:58:13.235Z,100396.59
2018-01-15T11:00:46.300Z,100399.34
2018-01-15T11:03:13.773Z,100386.48
2018-01-15T11:05:41.268Z,100390.00
2018-01-15T11:08:08.736Z,100383.58
2018-01-15T11:10:36.209Z,100371.66
2018-01-15T11:13:03.665Z,100357.14
2018-01-15T11:15:31.149Z,100348.66
2018-01-15T11:17:58.626Z,100347.67
2018-01-15T11:20:26.161Z,100343.80
2018-01-15T11:22:53.630Z,100327.94
2018-01-15T11:25:21.247Z,100320.08
2018-01-15T11:27:48.814Z,100310.31
2018-01-15T11:30:17.685Z,100282.73
2018-01-15T11:32:45.192Z,100284.14
2018-01-15T11:35:12.751Z,100301.42
2018-01-15T11:37:40.280Z,100307.59
2018-01-15T11:40:07.824Z,100300.73
2018-01-15T11:42:35.382Z,100277.37
2018-01-15T11:45:02.885Z,100267.42
2018-01-15T11:47:30.412Z,100257.72
2018-01-15T11:49:57.877Z,100261.80
2018-01-15T11:52:25.497Z,100265.25
2018-01-15T11:54:53.101Z,100252.42
2018-01-15T11:57:20.555Z,100250.15
2018-01-15T11:59:48.020Z,100252.31
2018-01-15T12:02:15.537Z,100238.38
2018-01-15T12:04:43.108Z,100235.58
2018-01-15T12:07:10.582Z,100237.27
2018-01-15T12:09:38.041Z,100223.80
2018-01-15T12:12:05.488Z,100224.79
2018-01-15T12:14:32.961Z,100201.73
2018-01-15T12:17:00.456Z,100201.50
2018-01-15T12:19:27.912Z,100195.36
2018-01-15T12:21:55.385Z,100189.27
2018-01-15T12:24:22.838Z,100181.73
2018-01-15T12:26:50.332Z,100173.64
2018-01-15T12:29:17.804Z,100167.48
2018-01-15T12:31:45.291Z,100166.67
2018-01-15T12:34:12.850Z,100149.67
2018-01-15T12:36:40.324Z,100147.27
2018-01-15T12:39:07.789Z,100145.86
2018-01-15T12:41:35.258Z,100138.18
2018-01-15T12:44:02.717Z,100133.53
2018-01-15T12:46:30.169Z,100116.75
2018-01-15T12:48:57.682Z,100119.88
2018-01-15T12:51:25.176Z,100115.95
2018-01-15T12:53:52.641Z,100112.10
2018-01-15T12:56:20.112Z,100100.98
2018-01-15T12:58:47.596Z,100107.63
2018-01-15T13:01:15.057Z,100095.95
2018-01-15T13:03:42.531Z,100091.49
2018-01-15T13:06:10.064Z,100091.86
2018-01-15T13:11:37.514Z,100070.88
2018-01-15T13:14:05.034Z,100064.75
2018-01-15T13:16:32.491Z,100055.43
2018-01-15T13:19:00.175Z,100052.51
2018-01-15T13:21:27.664Z,100067.34
2018-01-15T13:23:55.228Z,100042.51
2018-01-15T13:26:22.756Z,100032.36
2018-01-15T13:28:50.234Z,100028.11
2018-01-15T13:31:17.738Z,100024.23
2018-01-15T13:33:45.203Z,100032.16
2018-01-15T13:36:12.656Z,100025.05
2018-01-15T13:38:40.144Z,100021.38
2018-01-15T13:41:07.626Z,100024.36
2018-01-15T13:43:35.096Z,100030.47
2018-01-15T13:46:02.581Z,100031.70
2018-01-15T13:48:30.041Z,100024.37
2018-01-15T13:50:57.501Z,100030.02
2018-01-15T13:53:24.964Z,100027.06
2018-01-15T13:55:52.482Z,100015.86
2018-01-15T13:58:20.000Z,100011.81
2018-01-15T14:00:47.464Z,100002.75
2018-01-15T14:03:14.925Z,99999.16
2018-01-15T14:05:42.413Z,100004.03
2018-01-15T14:08:09.874Z,99995.95
2018-01-15T14:10:37.480Z,99996.88
2018-01-15T14:13:04.951Z,99981.87
2018-01-15T14:15:32.429Z,99995.30
2018-01-15T14:17:59.893Z,99998.91
2018-01-15T14:20:27.371Z,99987.73
2018-01-15T14:22:54.908Z,99975.51
2018-01-15T14:25:22.352Z,99968.15
2018-01-15T14:27:49.882Z,99960.86
2018-01-15T14:30:17.344Z,99970.01
2018-01-15T14:32:44.792Z,99951.02
2018-01-15T14:35:12.288Z,99954.19
2018-01-15T14:37:39.762Z,99951.55
2018-01-15T14:40:07.272Z,99944.98
2018-01-15T14:42:34.719Z,99937.05
2018-01-15T14:45:02.188Z,99936.47
2018-01-15T14:47:29.666Z,99922.05
2018-01-15T14:49:57.136Z,99906.52
2018-01-15T14:52:24.638Z,99914.34
2018-01-15T14:54:52.606Z,99900.06
2018-01-15T14:57:20.109Z,99900.88
2018-01-15T14:59:47.613Z,99895.47
2018-01-15T15:02:15.106Z,99898.30
2018-01-15T15:04:42.664Z,99876.47
2018-01-15T15:07:10.139Z,99877.55
2018-01-15T15:09:37.590Z,99877.78
2018-01-15T15:12:05.091Z,99867.20
2018-01-15T15:14:32.550Z,99865.13
2018-01-15T15:17:00.115Z,99851.51
2018-01-15T15:19:27.554Z,99846.89
2018-01-15T15:21:55.020Z,99836.15
2018-01-15T15:24:22.482Z,99842.41
2018-01-15T15:26:49.944Z,99849.94
2018-01-15T15:29:17.508Z,99830.68
2018-01-15T15:31:44.987Z,99829.12
2018-01-15T15:34:12.479Z,99823.44
2018-01-15T15:36:40.130Z,99821.17
2018-01-15T15:39:07.696Z,99829.16
2018-01-15T15:41:35.151Z,99825.02
2018-01-15T15:44:02.632Z,99822.53
2018-01-15T15:46:30.107Z,99808.65
2018-01-15T15:48:57.749Z,99808.65
2018-01-15T15:51:25.246Z,99803.06
2018-01-15T15:53:52.755Z,99794.41
2018-01-15T15:56:20.260Z,99784.67
2018-01-15T15:58:47.764Z,99781.24
2018-01-15T16:01:15.245Z,99782.56
2018-01-15T16:03:42.953Z,99777.68
2018-01-15T16:06:11.095Z,99777.09
2018-01-15T16:08:38.564Z,99748.13
2018-01-15T16:11:06.039Z,99760.86
2018-01-15T16:13:33.605Z,99746.92
2018-01-15T16:16:01.063Z,99736.00
2018-01-15T16:18:28.573Z,99732.04
2018-01-15T16:20:56.073Z,99729.80
2018-01-15T16:23:23.544Z,99719.25
2018-01-15T16:25:51.043Z,99716.15
2018-01-15T16:28:18.523Z,99713.11
2018-01-15T16:30:45.989Z,99704.67
2018-01-15T16:33:13.517Z,99698.75
2018-01-15T16:35:41.046Z,99686.48
2018-01-15T16:38:08.600Z,99685.38
2018-01-15T16:40:36.131Z,99693.94
2018-01-15T16:43:03.656Z,99672.70
2018-01-15T16:45:50.392Z,99668.87
2018-01-15T16:48:21.571Z,99685.89
2018-01-15T16:50:49.198Z,99666.22
2018-01-15T16:53:16.708Z,99657.11
2018-01-15T16:55:44.181Z,99646.49
2018-01-15T16:58:11.857Z,99648.95
2018-01-15T17:00:39.426Z,99652.33
2018-01-15T17:03:06.916Z,99649.41
2018-01-15T17:05:34.421Z,99639.08
2018-01-15T17:08:01.919Z,99631.20
2018-01-15T17:10:30.469Z,99657.58
2018-01-15T17:12:57.981Z,99642.92
2018-01-15T17:15:25.478Z,99624.11
2018-01-15T17:17:52.930Z,99630.34
2018-01-15T17:20:20.474Z,99616.14
2018-01-15T17:22:47.981Z,99625.72
2018-01-15T17:25:15.759Z,99612.58
2018-01-15T17:27:43.324Z,99615.09
2018-01-15T17:30:10.950Z,99613.07
2018-01-15T17:32:38.437Z,99589.84
2018-01-15T17:35:05.884Z,99586.81
2018-01-15T17:37:33.390Z,99580.61
2018-01-15T17:40:00.831Z,99595.38
2018-01-15T17:42:28.332Z,99578.50
2018-01-15T17:44:55.828Z,99571.50
2018-01-15T17:47:23.367Z,99583.16
2018-01-15T17:49:52.017Z,99573.22
2018-01-15T17:52:20.436Z,99586.23
2018-01-15T17:54:47.912Z,99557.86
2018-01-15T17:57:15.441Z,99552.27
2018-01-15T17:59:42.896Z,99548.89
2018-01-15T18:02:10.386Z,99550.39
2018-01-15T18:04:37.863Z,99538.17
2018-01-15T18:07:05.540Z,99531.27
2018-01-15T18:09:33.037Z,99526.43
2018-01-15T18:12:00.638Z,99532.77
2018-01-15T18:14:28.438Z,99516.22
2018-01-15T18:16:55.955Z,99504.97
2018-01-15T18:19:23.581Z,99510.80
2018-01-15T18:21:51.260Z,99499.81
2018-01-15T18:24:18.882Z,99516.66
2018-01-15T18:26:46.492Z,99500.95
2018-01-15T18:29:14.011Z,99480.59
2018-01-15T18:31:41.473Z,99479.49
2018-01-15T18:34:08.974Z,99473.53
2018-01-15T18:36:36.481Z,99486.05
2018-01-15T18:39:03.941Z,99469.52
2018-01-15T18:41:31.643Z,99456.80
2018-01-15T18:43:59.163Z,99463.34
2018-01-15T18:46:26.765Z,99467.03
2018-01-15T18:48:54.557Z,99464.88
2018-01-15T18:51:22.050Z,99457.67
2018-01-15T18:53:49.531Z,99467.30
2018-01-15T18:56:17.123Z,99462.19
2018-01-15T18:58:44.738Z,99463.06
2018-01-15T19:01:12.271Z,99451.59
2018-01-15T19:03:39.888Z,99438.35
2018-01-15T19:06:11.073Z,99435.31
2018-01-15T19:08:38.529Z,99439.05
2018-01-15T19:11:06.004Z,99428.80
2018-01-15T19:13:33.525Z,99418.02
2018-01-15T19:16:01.000Z,99415.38
2018-01-15T19:18:28.472Z,99421.97
2018-01-15T19:20:55.972Z,99401.75
2018-01-15T19:23:23.515Z,99390.40
2018-01-15T19:25:50.990Z,99413.77
2018-01-15T19:28:18.489Z,99404.74
2018-01-15T19:30:45.990Z,99398.60
2018-01-15T19:33:13.537Z,99391.04
2018-01-15T19:35:46.833Z,99390.63
2018-01-15T19:41:11.880Z,99375.09
2018-01-15T19:46:47.845Z,99366.03
2018-01-15T19:49:21.261Z,99381.36
2018-01-15T19:51:54.497Z,99374.35
2018-01-15T19:54:27.615Z,99404.56
2018-01-15T20:00:17.818Z,99350.22
2018-01-15T20:02:50.789Z,99334.80
2018-01-15T20:05:24.046Z,99330.25
2018-01-15T20:07:57.155Z,99322.62
2018-01-15T20:10:30.167Z,99299.41
2018-01-15T20:12:57.675Z,99311.95
2018-01-15T20:15:25.185Z,99288.88
2018-01-15T20:17:52.644Z,99282.28
2018-01-15T20:20:20.165Z,99271.34
2018-01-15T20:22:47.756Z,99270.64
2018-01-15T20:25:15.278Z,99262.73
2018-01-15T20:27:42.759Z,99258.91
2018-01-15T20:30:10.259Z,99278.42
2018-01-15T20:33:00.313Z,99274.42
2018-01-15T20:35:29.841Z,99271.70
2018-01-15T20:37:57.313Z,99243.50
2018-01-15T20:40:24.810Z,99250.44
2018-01-15T20:43:06.324Z,99224.81
2018-01-15T20:45:35.409Z,99220.56
2018-01-15T20:48:02.859Z,99202.02
2018-01-15T20:50:30.356Z,99236.29
2018-01-15T20:52:57.914Z,99226.02
2018-01-15T20:55:25.747Z,99235.37
2018-01-15T20:57:53.252Z,99200.57
2018-01-15T21:00:22.067Z,99180.09
2018-01-15T21:02:49.557Z,99220.48
2018-01-15T21:05:17.094Z,99181.23
2018-01-15T21:07:44.590Z,99179.00
2018-01-15T21:10:12.060Z,99156.67
2018-01-15T21:12:39.510Z,99165.86
2018-01-15T21:15:06.973Z,99166.16
2018-01-15T21:17:34.430Z,99153.08
2018-01-15T21:20:02.093Z,99147.80
2018-01-15T21:22:29.581Z,99149.64
2018-01-15T21:24:57.136Z,99156.77
2018-01-15T21:27:24.642Z,99152.85
2018-01-15T21:29:52.154Z,99121.22
2018-01-15T21:32:19.702Z,99115.59
2018-01-15T21:34:47.241Z,99112.91
2018-01-15T21:37:14.706Z,99112.73
2018-01-15T21:39:42.246Z,99086.64
2018-01-15T21:42:09.700Z,99091.82
2018-01-15T21:44:37.195Z,99061.60
2018-01-15T21:47:04.696Z,99062.42
2018-01-15T21:49:32.235Z,99085.77
2018-01-15T21:51:59.782Z,99062.80
2018-01-15T21:54:27.375Z,99046.76
2018-01-15T21:56:54.902Z,99039.13
2018-01-15T21:59:22.367Z,99040.61
2018-01-15T22:01:49.828Z,99024.56
2018-01-15T22:04:17.293Z,99007.33
2018-01-15T22:06:52.986Z,99013.33
2018-01-15T22:09:42.998Z,98994.62
2018-01-15T22:12:14.721Z,98997.06
2018-01-15T22:14:42.237Z,98988.69
2018-01-15T22:17:09.705Z,98952.93
2018-01-15T22:19:37.182Z,98964.00
2018-01-15T22:22:04.676Z,98961.76
2018-01-15T22:24:32.213Z,98942.52
2018-01-15T22:26:59.678Z,98941.59
2018-01-15T22:29:27.133Z,98953.33
2018-01-15T22:31:54.586Z,98959.36
2018-01-15T22:34:22.080Z,98941.98
2018-01-15T22:36:49.585Z,98951.64
2018-01-15T22:39:17.056Z,98942.19
2018-01-15T22:41:44.598Z,98926.89
2018-01-15T22:44:12.067Z,98944.49
2018-01-15T22:46:39.554Z,98911.17
2018-01-15T22:49:07.038Z,98966.44
2018-01-15T22:51:34.596Z,98907.65
2018-01-15T22:54:02.035Z,98898.09
2018-01-15T22:56:29.506Z,98902.58
2018-01-15T22:58:56.961Z,98881.85
2018-01-15T23:01:24.413Z,98886.44
2018-01-15T23:03:51.873Z,98875.09
2018-01-15T23:06:19.418Z,98873.98
2018-01-15T23:08:46.923Z,98858.89
2018-01-15T23:11:14.386Z,98854.38
2018-01-15T23:13:41.930Z,98845.02
2018-01-15T23:16:09.390Z,98835.98
2018-01-15T23:18:36.836Z,98826.14
2018-01-15T23:21:04.359Z,98823.91
2018-01-15T23:23:31.920Z,98796.20
2018-01-15T23:25:59.497Z,98789.91
2018-01-15T23:28:26.987Z,98775.41
2018-01-15T23:30:54.466Z,98784.87
2018-01-15T23:33:21.933Z,98749.10
2018-01-15T23:35:49.383Z,98736.66
2018-01-15T23:38:16.850Z,98736.69
2018-01-15T23:40:44.294Z,98738.30
2018-01-15T23:43:11.780Z,98733.50
2018-01-15T23:45:39.240Z,98759.53
2018-01-15T23:48:06.721Z,98720.92
2018-01-15T23:50:34.172Z,98750.02
2018-01-15T23:53:01.674Z,98724.59
2018-01-15T23:55:29.138Z,98718.42
2018-01-15T23:57:56.630Z,98701.41
